sensor_id;sensor_type;location;lat;lon;timestamp;P1;durP1;ratioP1;P2;durP2;ratioP2
75320;SDS011;63920;52.130;5.584;2023-02-03T00:01:48;14.02;;;4.57;;
75320;SDS011;63920;52.130;5.584;2023-02-03T00:04:14;13.50;;;4.25;;
75320;SDS011;63920;52.130;5.584;2023-02-03T00:06:40;16.08;;;4.45;;
75320;SDS011;63920;52.130;5.584;2023-02-03T00:09:05;13.20;;;4.25;;
75320;SDS011;63920;52.130;5.584;2023-02-03T00:11:31;11.15;;;4.47;;
75320;SDS011;63920;52.130;5.584;2023-02-03T00:13:57;13.80;;;4.45;;
75320;SDS011;63920;52.130;5.584;2023-02-03T00:16:22;21.40;;;4.93;;
75320;SDS011;63920;52.130;5.584;2023-02-03T00:18:48;16.33;;;4.50;;
75320;SDS011;63920;52.130;5.584;2023-02-03T00:21:13;15.45;;;5.30;;
75320;SDS011;63920;52.130;5.584;2023-02-03T00:23:39;15.70;;;4.45;;
75320;SDS011;63920;52.130;5.584;2023-02-03T00:26:09;14.20;;;4.75;;
75320;SDS011;63920;52.130;5.584;2023-02-03T00:28:37;15.10;;;4.70;;
75320;SDS011;63920;52.130;5.584;2023-02-03T00:31:03;26.73;;;5.22;;
75320;SDS011;63920;52.130;5.584;2023-02-03T00:33:29;13.15;;;4.53;;
75320;SDS011;63920;52.130;5.584;2023-02-03T00:35:54;15.20;;;4.35;;
75320;SDS011;63920;52.130;5.584;2023-02-03T00:38:20;17.27;;;5.35;;
75320;SDS011;63920;52.130;5.584;2023-02-03T00:40:51;14.57;;;4.13;;
75320;SDS011;63920;52.130;5.584;2023-02-03T00:43:18;13.07;;;4.47;;
75320;SDS011;63920;52.130;5.584;2023-02-03T00:45:44;17.65;;;4.35;;
75320;SDS011;63920;52.130;5.584;2023-02-03T00:48:09;16.05;;;4.47;;
75320;SDS011;63920;52.130;5.584;2023-02-03T00:50:35;15.05;;;4.40;;
75320;SDS011;63920;52.130;5.584;2023-02-03T00:53:01;19.45;;;4.60;;
75320;SDS011;63920;52.130;5.584;2023-02-03T00:55:26;17.00;;;4.65;;
75320;SDS011;63920;52.130;5.584;2023-02-03T00:57:52;14.10;;;4.63;;
75320;SDS011;63920;52.130;5.584;2023-02-03T01:00:18;11.65;;;4.40;;
75320;SDS011;63920;52.130;5.584;2023-02-03T01:02:44;13.63;;;4.43;;
75320;SDS011;63920;52.130;5.584;2023-02-03T01:05:10;11.68;;;4.28;;
75320;SDS011;63920;52.130;5.584;2023-02-03T01:07:36;11.57;;;3.90;;
75320;SDS011;63920;52.130;5.584;2023-02-03T01:10:02;15.48;;;4.20;;
75320;SDS011;63920;52.130;5.584;2023-02-03T01:12:29;8.35;;;3.72;;
75320;SDS011;63920;52.130;5.584;2023-02-03T01:14:55;13.35;;;3.67;;
75320;SDS011;63920;52.130;5.584;2023-02-03T01:17:21;10.32;;;4.13;;
75320;SDS011;63920;52.130;5.584;2023-02-03T01:19:46;22.75;;;4.10;;
75320;SDS011;63920;52.130;5.584;2023-02-03T01:22:12;15.10;;;3.75;;
75320;SDS011;63920;52.130;5.584;2023-02-03T01:24:38;15.77;;;4.18;;
75320;SDS011;63920;52.130;5.584;2023-02-03T01:27:03;17.40;;;4.07;;
75320;SDS011;63920;52.130;5.584;2023-02-03T01:29:30;13.98;;;3.88;;
75320;SDS011;63920;52.130;5.584;2023-02-03T01:31:55;9.85;;;3.72;;
75320;SDS011;63920;52.130;5.584;2023-02-03T01:34:21;14.25;;;4.72;;
75320;SDS011;63920;52.130;5.584;2023-02-03T01:36:47;11.50;;;3.22;;
75320;SDS011;63920;52.130;5.584;2023-02-03T01:39:12;12.07;;;4.20;;
75320;SDS011;63920;52.130;5.584;2023-02-03T01:41:38;14.18;;;3.28;;
75320;SDS011;63920;52.130;5.584;2023-02-03T01:47:02;13.90;;;3.40;;
75320;SDS011;63920;52.130;5.584;2023-02-03T01:49:28;10.27;;;3.65;;
75320;SDS011;63920;52.130;5.584;2023-02-03T01:51:59;14.77;;;3.70;;
75320;SDS011;63920;52.130;5.584;2023-02-03T01:54:25;9.55;;;3.15;;
75320;SDS011;63920;52.130;5.584;2023-02-03T01:56:55;16.13;;;3.60;;
75320;SDS011;63920;52.130;5.584;2023-02-03T01:59:25;9.45;;;3.25;;
75320;SDS011;63920;52.130;5.584;2023-02-03T02:01:54;14.73;;;3.92;;
75320;SDS011;63920;52.130;5.584;2023-02-03T02:04:21;16.08;;;3.58;;
75320;SDS011;63920;52.130;5.584;2023-02-03T02:06:49;9.45;;;2.70;;
75320;SDS011;63920;52.130;5.584;2023-02-03T02:09:15;9.90;;;2.38;;
75320;SDS011;63920;52.130;5.584;2023-02-03T02:11:41;14.98;;;3.05;;
75320;SDS011;63920;52.130;5.584;2023-02-03T02:14:07;13.80;;;3.00;;
75320;SDS011;63920;52.130;5.584;2023-02-03T02:19:25;12.70;;;2.40;;
75320;SDS011;63920;52.130;5.584;2023-02-03T02:22:13;8.93;;;2.72;;
75320;SDS011;63920;52.130;5.584;2023-02-03T02:36:02;4.97;;;2.47;;
75320;SDS011;63920;52.130;5.584;2023-02-03T02:41:30;5.93;;;2.20;;
75320;SDS011;63920;52.130;5.584;2023-02-03T02:44:03;9.07;;;2.38;;
75320;SDS011;63920;52.130;5.584;2023-02-03T02:46:43;10.05;;;2.50;;
75320;SDS011;63920;52.130;5.584;2023-02-03T02:49:13;10.68;;;2.25;;
75320;SDS011;63920;52.130;5.584;2023-02-03T02:51:44;10.07;;;2.60;;
75320;SDS011;63920;52.130;5.584;2023-02-03T02:54:13;9.52;;;2.35;;
75320;SDS011;63920;52.130;5.584;2023-02-03T02:56:42;13.38;;;2.78;;
75320;SDS011;63920;52.130;5.584;2023-02-03T02:59:12;14.68;;;2.85;;
75320;SDS011;63920;52.130;5.584;2023-02-03T03:01:39;10.10;;;2.60;;
75320;SDS011;63920;52.130;5.584;2023-02-03T03:04:05;13.30;;;2.53;;
75320;SDS011;63920;52.130;5.584;2023-02-03T03:06:35;10.85;;;2.03;;
75320;SDS011;63920;52.130;5.584;2023-02-03T03:09:15;5.90;;;2.10;;
75320;SDS011;63920;52.130;5.584;2023-02-03T03:11:47;13.07;;;2.60;;
75320;SDS011;63920;52.130;5.584;2023-02-03T03:14:20;12.02;;;2.63;;
75320;SDS011;63920;52.130;5.584;2023-02-03T03:16:55;11.18;;;2.20;;
75320;SDS011;63920;52.130;5.584;2023-02-03T03:19:24;11.73;;;2.28;;
75320;SDS011;63920;52.130;5.584;2023-02-03T03:21:57;8.55;;;2.00;;
75320;SDS011;63920;52.130;5.584;2023-02-03T03:24:28;8.02;;;2.30;;
75320;SDS011;63920;52.130;5.584;2023-02-03T03:27:00;12.60;;;2.08;;
75320;SDS011;63920;52.130;5.584;2023-02-03T03:29:32;5.72;;;2.40;;
75320;SDS011;63920;52.130;5.584;2023-02-03T03:32:13;9.82;;;2.42;;
75320;SDS011;63920;52.130;5.584;2023-02-03T03:34:39;9.55;;;2.58;;
75320;SDS011;63920;52.130;5.584;2023-02-03T03:37:08;13.20;;;2.45;;
75320;SDS011;63920;52.130;5.584;2023-02-03T03:39:45;15.15;;;2.40;;
75320;SDS011;63920;52.130;5.584;2023-02-03T03:45:30;9.65;;;2.22;;
75320;SDS011;63920;52.130;5.584;2023-02-03T03:48:04;11.35;;;3.03;;
75320;SDS011;63920;52.130;5.584;2023-02-03T03:50:38;13.00;;;2.42;;
75320;SDS011;63920;52.130;5.584;2023-02-03T03:53:07;7.95;;;2.00;;
75320;SDS011;63920;52.130;5.584;2023-02-03T03:55:34;11.48;;;2.45;;
75320;SDS011;63920;52.130;5.584;2023-02-03T03:58:03;7.38;;;2.45;;
75320;SDS011;63920;52.130;5.584;2023-02-03T04:00:32;5.53;;;1.98;;
75320;SDS011;63920;52.130;5.584;2023-02-03T04:03:01;15.65;;;2.72;;
75320;SDS011;63920;52.130;5.584;2023-02-03T04:05:32;9.43;;;2.15;;
75320;SDS011;63920;52.130;5.584;2023-02-03T04:07:58;9.52;;;2.20;;
75320;SDS011;63920;52.130;5.584;2023-02-03T04:10:31;14.57;;;2.42;;
75320;SDS011;63920;52.130;5.584;2023-02-03T04:13:02;7.05;;;2.10;;
75320;SDS011;63920;52.130;5.584;2023-02-03T04:15:28;9.02;;;2.05;;
75320;SDS011;63920;52.130;5.584;2023-02-03T04:17:54;9.60;;;2.33;;
75320;SDS011;63920;52.130;5.584;2023-02-03T04:20:21;6.93;;;1.85;;
75320;SDS011;63920;52.130;5.584;2023-02-03T04:22:47;6.03;;;1.90;;
75320;SDS011;63920;52.130;5.584;2023-02-03T04:25:12;8.27;;;2.10;;
75320;SDS011;63920;52.130;5.584;2023-02-03T04:27:38;9.45;;;2.08;;
75320;SDS011;63920;52.130;5.584;2023-02-03T04:30:04;5.38;;;2.08;;
75320;SDS011;63920;52.130;5.584;2023-02-03T04:32:30;6.90;;;2.08;;
75320;SDS011;63920;52.130;5.584;2023-02-03T04:34:56;9.07;;;1.88;;
75320;SDS011;63920;52.130;5.584;2023-02-03T04:37:22;8.48;;;2.10;;
75320;SDS011;63920;52.130;5.584;2023-02-03T04:39:50;12.07;;;2.67;;
75320;SDS011;63920;52.130;5.584;2023-02-03T04:42:17;5.32;;;1.80;;
75320;SDS011;63920;52.130;5.584;2023-02-03T04:44:43;7.55;;;2.40;;
75320;SDS011;63920;52.130;5.584;2023-02-03T04:47:08;9.93;;;2.25;;
75320;SDS011;63920;52.130;5.584;2023-02-03T04:49:34;12.07;;;1.75;;
75320;SDS011;63920;52.130;5.584;2023-02-03T04:51:59;5.70;;;1.60;;
75320;SDS011;63920;52.130;5.584;2023-02-03T04:54:25;6.65;;;1.40;;
75320;SDS011;63920;52.130;5.584;2023-02-03T04:56:50;5.28;;;1.60;;
75320;SDS011;63920;52.130;5.584;2023-02-03T04:59:16;10.30;;;1.88;;
75320;SDS011;63920;52.130;5.584;2023-02-03T05:01:41;8.27;;;1.65;;
75320;SDS011;63920;52.130;5.584;2023-02-03T05:04:07;4.97;;;1.60;;
75320;SDS011;63920;52.130;5.584;2023-02-03T05:06:33;4.88;;;1.60;;
75320;SDS011;63920;52.130;5.584;2023-02-03T05:08:59;6.93;;;1.83;;
75320;SDS011;63920;52.130;5.584;2023-02-03T05:11:24;8.15;;;2.45;;
75320;SDS011;63920;52.130;5.584;2023-02-03T05:13:52;11.32;;;1.90;;
75320;SDS011;63920;52.130;5.584;2023-02-03T05:16:18;5.15;;;1.63;;
75320;SDS011;63920;52.130;5.584;2023-02-03T05:18:44;14.75;;;2.15;;
75320;SDS011;63920;52.130;5.584;2023-02-03T05:21:09;3.47;;;1.60;;
75320;SDS011;63920;52.130;5.584;2023-02-03T05:23:35;9.00;;;2.15;;
75320;SDS011;63920;52.130;5.584;2023-02-03T05:26:00;5.90;;;2.03;;
75320;SDS011;63920;52.130;5.584;2023-02-03T05:28:26;9.35;;;1.90;;
75320;SDS011;63920;52.130;5.584;2023-02-03T05:30:51;8.10;;;1.60;;
75320;SDS011;63920;52.130;5.584;2023-02-03T05:33:17;9.50;;;2.38;;
75320;SDS011;63920;52.130;5.584;2023-02-03T05:35:43;7.57;;;2.65;;
75320;SDS011;63920;52.130;5.584;2023-02-03T05:38:08;6.13;;;2.38;;
75320;SDS011;63920;52.130;5.584;2023-02-03T05:40:34;8.60;;;2.53;;
75320;SDS011;63920;52.130;5.584;2023-02-03T05:43:18;4.72;;;1.65;;
75320;SDS011;63920;52.130;5.584;2023-02-03T05:45:43;7.03;;;1.63;;
75320;SDS011;63920;52.130;5.584;2023-02-03T05:48:09;9.90;;;2.20;;
75320;SDS011;63920;52.130;5.584;2023-02-03T05:50:35;10.98;;;2.15;;
75320;SDS011;63920;52.130;5.584;2023-02-03T05:53:01;8.90;;;2.22;;
75320;SDS011;63920;52.130;5.584;2023-02-03T05:55:28;12.60;;;1.85;;
75320;SDS011;63920;52.130;5.584;2023-02-03T05:57:55;10.80;;;2.15;;
75320;SDS011;63920;52.130;5.584;2023-02-03T06:00:21;8.43;;;2.10;;
75320;SDS011;63920;52.130;5.584;2023-02-03T06:02:51;12.95;;;2.25;;
75320;SDS011;63920;52.130;5.584;2023-02-03T06:05:21;6.85;;;2.05;;
75320;SDS011;63920;52.130;5.584;2023-02-03T06:07:48;5.45;;;1.88;;
75320;SDS011;63920;52.130;5.584;2023-02-03T06:10:14;5.00;;;1.77;;
75320;SDS011;63920;52.130;5.584;2023-02-03T06:12:40;8.68;;;1.83;;
75320;SDS011;63920;52.130;5.584;2023-02-03T06:15:06;6.10;;;1.77;;
75320;SDS011;63920;52.130;5.584;2023-02-03T06:17:32;7.78;;;1.90;;
75320;SDS011;63920;52.130;5.584;2023-02-03T06:19:58;7.25;;;2.30;;
75320;SDS011;63920;52.130;5.584;2023-02-03T06:22:23;11.20;;;2.47;;
75320;SDS011;63920;52.130;5.584;2023-02-03T06:24:49;13.45;;;2.47;;
75320;SDS011;63920;52.130;5.584;2023-02-03T06:27:14;9.13;;;2.30;;
75320;SDS011;63920;52.130;5.584;2023-02-03T06:29:40;7.03;;;2.33;;
75320;SDS011;63920;52.130;5.584;2023-02-03T06:32:06;11.98;;;2.33;;
75320;SDS011;63920;52.130;5.584;2023-02-03T06:34:32;8.95;;;2.30;;
75320;SDS011;63920;52.130;5.584;2023-02-03T06:36:58;10.23;;;2.50;;
75320;SDS011;63920;52.130;5.584;2023-02-03T06:39:24;10.05;;;2.65;;
75320;SDS011;63920;52.130;5.584;2023-02-03T06:41:49;8.93;;;2.22;;
75320;SDS011;63920;52.130;5.584;2023-02-03T06:44:16;5.38;;;2.20;;
75320;SDS011;63920;52.130;5.584;2023-02-03T06:46:44;11.43;;;2.58;;
75320;SDS011;63920;52.130;5.584;2023-02-03T06:49:10;9.18;;;2.65;;
75320;SDS011;63920;52.130;5.584;2023-02-03T06:51:36;9.43;;;2.53;;
75320;SDS011;63920;52.130;5.584;2023-02-03T06:54:02;14.55;;;2.42;;
75320;SDS011;63920;52.130;5.584;2023-02-03T06:56:28;16.00;;;2.78;;
75320;SDS011;63920;52.130;5.584;2023-02-03T06:58:53;9.35;;;2.10;;
75320;SDS011;63920;52.130;5.584;2023-02-03T07:01:19;11.30;;;2.20;;
75320;SDS011;63920;52.130;5.584;2023-02-03T07:03:45;11.20;;;2.88;;
75320;SDS011;63920;52.130;5.584;2023-02-03T07:06:11;14.52;;;2.30;;
75320;SDS011;63920;52.130;5.584;2023-02-03T07:08:37;10.32;;;2.70;;
75320;SDS011;63920;52.130;5.584;2023-02-03T07:11:02;11.02;;;2.65;;
75320;SDS011;63920;52.130;5.584;2023-02-03T07:13:28;12.30;;;2.72;;
75320;SDS011;63920;52.130;5.584;2023-02-03T07:15:54;7.05;;;2.15;;
75320;SDS011;63920;52.130;5.584;2023-02-03T07:18:19;6.70;;;2.42;;
75320;SDS011;63920;52.130;5.584;2023-02-03T07:20:48;6.43;;;2.25;;
75320;SDS011;63920;52.130;5.584;2023-02-03T07:23:14;10.05;;;2.38;;
75320;SDS011;63920;52.130;5.584;2023-02-03T07:25:40;9.50;;;2.67;;
75320;SDS011;63920;52.130;5.584;2023-02-03T07:28:05;10.57;;;2.58;;
75320;SDS011;63920;52.130;5.584;2023-02-03T07:30:31;9.93;;;2.72;;
75320;SDS011;63920;52.130;5.584;2023-02-03T07:32:56;8.73;;;2.72;;
75320;SDS011;63920;52.130;5.584;2023-02-03T07:35:22;9.18;;;3.05;;
75320;SDS011;63920;52.130;5.584;2023-02-03T07:37:48;7.65;;;2.20;;
75320;SDS011;63920;52.130;5.584;2023-02-03T07:40:14;9.75;;;2.30;;
75320;SDS011;63920;52.130;5.584;2023-02-03T07:42:40;13.07;;;2.65;;
75320;SDS011;63920;52.130;5.584;2023-02-03T07:45:07;11.75;;;2.63;;
75320;SDS011;63920;52.130;5.584;2023-02-03T07:47:34;6.07;;;2.20;;
75320;SDS011;63920;52.130;5.584;2023-02-03T07:49:59;12.35;;;3.72;;
75320;SDS011;63920;52.130;5.584;2023-02-03T07:52:25;8.30;;;2.70;;
75320;SDS011;63920;52.130;5.584;2023-02-03T07:54:50;13.00;;;3.33;;
75320;SDS011;63920;52.130;5.584;2023-02-03T07:57:16;8.73;;;2.47;;
75320;SDS011;63920;52.130;5.584;2023-02-03T07:59:41;12.00;;;2.55;;
75320;SDS011;63920;52.130;5.584;2023-02-03T08:02:08;9.10;;;2.50;;
75320;SDS011;63920;52.130;5.584;2023-02-03T08:04:35;9.07;;;2.20;;
75320;SDS011;63920;52.130;5.584;2023-02-03T08:07:01;6.63;;;2.60;;
75320;SDS011;63920;52.130;5.584;2023-02-03T08:09:27;14.35;;;2.63;;
75320;SDS011;63920;52.130;5.584;2023-02-03T08:11:53;8.15;;;2.47;;
75320;SDS011;63920;52.130;5.584;2023-02-03T08:14:18;13.38;;;2.83;;
75320;SDS011;63920;52.130;5.584;2023-02-03T08:16:44;11.90;;;2.83;;
75320;SDS011;63920;52.130;5.584;2023-02-03T08:19:10;9.75;;;2.58;;
75320;SDS011;63920;52.130;5.584;2023-02-03T08:21:36;12.82;;;2.83;;
75320;SDS011;63920;52.130;5.584;2023-02-03T08:24:01;16.58;;;2.90;;
75320;SDS011;63920;52.130;5.584;2023-02-03T08:26:27;11.75;;;2.65;;
75320;SDS011;63920;52.130;5.584;2023-02-03T08:28:53;13.38;;;2.75;;
75320;SDS011;63920;52.130;5.584;2023-02-03T08:31:18;13.88;;;2.80;;
75320;SDS011;63920;52.130;5.584;2023-02-03T08:33:44;13.18;;;2.70;;
75320;SDS011;63920;52.130;5.584;2023-02-03T08:36:10;11.10;;;2.65;;
75320;SDS011;63920;52.130;5.584;2023-02-03T08:38:36;12.43;;;3.20;;
75320;SDS011;63920;52.130;5.584;2023-02-03T08:41:07;12.30;;;3.65;;
75320;SDS011;63920;52.130;5.584;2023-02-03T08:43:34;16.60;;;2.85;;
75320;SDS011;63920;52.130;5.584;2023-02-03T08:46:03;15.82;;;3.35;;
75320;SDS011;63920;52.130;5.584;2023-02-03T08:48:30;12.52;;;3.00;;
75320;SDS011;63920;52.130;5.584;2023-02-03T08:50:55;9.00;;;2.83;;
75320;SDS011;63920;52.130;5.584;2023-02-03T08:53:21;13.95;;;3.63;;
75320;SDS011;63920;52.130;5.584;2023-02-03T08:55:46;12.52;;;2.25;;
75320;SDS011;63920;52.130;5.584;2023-02-03T08:58:12;10.00;;;3.13;;
75320;SDS011;63920;52.130;5.584;2023-02-03T09:00:38;7.88;;;2.97;;
75320;SDS011;63920;52.130;5.584;2023-02-03T09:03:03;12.40;;;2.90;;
75320;SDS011;63920;52.130;5.584;2023-02-03T09:05:29;13.82;;;2.70;;
75320;SDS011;63920;52.130;5.584;2023-02-03T09:07:56;13.93;;;2.90;;
75320;SDS011;63920;52.130;5.584;2023-02-03T09:10:21;7.82;;;2.97;;
75320;SDS011;63920;52.130;5.584;2023-02-03T09:12:47;8.95;;;2.45;;
75320;SDS011;63920;52.130;5.584;2023-02-03T09:15:12;14.25;;;3.65;;
75320;SDS011;63920;52.130;5.584;2023-02-03T09:17:38;17.00;;;3.65;;
75320;SDS011;63920;52.130;5.584;2023-02-03T09:20:04;14.30;;;3.58;;
75320;SDS011;63920;52.130;5.584;2023-02-03T09:22:30;12.85;;;2.67;;
75320;SDS011;63920;52.130;5.584;2023-02-03T09:24:56;11.40;;;2.67;;
75320;SDS011;63920;52.130;5.584;2023-02-03T09:27:22;13.38;;;3.03;;
75320;SDS011;63920;52.130;5.584;2023-02-03T09:29:47;11.82;;;2.70;;
75320;SDS011;63920;52.130;5.584;2023-02-03T09:32:13;12.35;;;3.30;;
75320;SDS011;63920;52.130;5.584;2023-02-03T09:34:39;12.68;;;3.15;;
75320;SDS011;63920;52.130;5.584;2023-02-03T09:37:05;13.60;;;3.35;;
75320;SDS011;63920;52.130;5.584;2023-02-03T09:39:31;13.13;;;2.60;;
75320;SDS011;63920;52.130;5.584;2023-02-03T09:47:33;14.40;;;2.90;;
75320;SDS011;63920;52.130;5.584;2023-02-03T09:50:02;15.90;;;3.10;;
75320;SDS011;63920;52.130;5.584;2023-02-03T09:52:35;9.93;;;3.00;;
75320;SDS011;63920;52.130;5.584;2023-02-03T09:57:48;11.93;;;3.47;;
75320;SDS011;63920;52.130;5.584;2023-02-03T10:00:22;8.82;;;2.55;;
75320;SDS011;63920;52.130;5.584;2023-02-03T10:02:59;9.63;;;2.78;;
75320;SDS011;63920;52.130;5.584;2023-02-03T10:08:42;20.00;;;3.22;;
75320;SDS011;63920;52.130;5.584;2023-02-03T10:11:27;15.18;;;3.05;;
75320;SDS011;63920;52.130;5.584;2023-02-03T10:19:23;13.95;;;3.65;;
75320;SDS011;63920;52.130;5.584;2023-02-03T10:21:57;14.70;;;3.17;;
75320;SDS011;63920;52.130;5.584;2023-02-03T10:27:20;8.80;;;2.58;;
75320;SDS011;63920;52.130;5.584;2023-02-03T10:29:55;10.85;;;2.88;;
75320;SDS011;63920;52.130;5.584;2023-02-03T10:32:26;10.50;;;2.72;;
75320;SDS011;63920;52.130;5.584;2023-02-03T10:34:51;13.32;;;2.67;;
75320;SDS011;63920;52.130;5.584;2023-02-03T10:39:52;10.30;;;2.63;;
75320;SDS011;63920;52.130;5.584;2023-02-03T10:42:19;14.98;;;2.83;;
75320;SDS011;63920;52.130;5.584;2023-02-03T10:49:52;9.13;;;2.67;;
75320;SDS011;63920;52.130;5.584;2023-02-03T10:52:39;8.27;;;2.30;;
75320;SDS011;63920;52.130;5.584;2023-02-03T10:55:06;16.15;;;2.88;;
75320;SDS011;63920;52.130;5.584;2023-02-03T10:57:54;10.15;;;3.40;;
75320;SDS011;63920;52.130;5.584;2023-02-03T11:00:21;8.38;;;2.58;;
75320;SDS011;63920;52.130;5.584;2023-02-03T11:03:22;7.60;;;2.42;;
75320;SDS011;63920;52.130;5.584;2023-02-03T11:08:36;10.98;;;3.03;;
75320;SDS011;63920;52.130;5.584;2023-02-03T11:11:05;14.25;;;3.10;;
75320;SDS011;63920;52.130;5.584;2023-02-03T11:13:32;12.05;;;3.65;;
75320;SDS011;63920;52.130;5.584;2023-02-03T11:16:02;11.40;;;3.08;;
75320;SDS011;63920;52.130;5.584;2023-02-03T11:21:10;7.38;;;2.40;;
75320;SDS011;63920;52.130;5.584;2023-02-03T11:23:47;12.75;;;4.00;;
75320;SDS011;63920;52.130;5.584;2023-02-03T11:26:23;12.82;;;2.72;;
75320;SDS011;63920;52.130;5.584;2023-02-03T11:28:55;7.20;;;3.05;;
75320;SDS011;63920;52.130;5.584;2023-02-03T11:31:24;11.77;;;2.95;;
75320;SDS011;63920;52.130;5.584;2023-02-03T11:33:54;11.88;;;3.28;;
75320;SDS011;63920;52.130;5.584;2023-02-03T11:36:26;7.90;;;2.92;;
75320;SDS011;63920;52.130;5.584;2023-02-03T11:39:07;11.35;;;3.38;;
75320;SDS011;63920;52.130;5.584;2023-02-03T11:41:42;9.20;;;2.63;;
75320;SDS011;63920;52.130;5.584;2023-02-03T11:44:26;10.05;;;2.78;;
75320;SDS011;63920;52.130;5.584;2023-02-03T11:47:01;12.30;;;3.40;;
75320;SDS011;63920;52.130;5.584;2023-02-03T11:49:42;9.35;;;3.08;;
75320;SDS011;63920;52.130;5.584;2023-02-03T11:52:47;11.88;;;2.97;;
75320;SDS011;63920;52.130;5.584;2023-02-03T11:55:24;10.95;;;2.65;;
75320;SDS011;63920;52.130;5.584;2023-02-03T11:58:13;7.30;;;3.22;;
75320;SDS011;63920;52.130;5.584;2023-02-03T12:01:06;11.90;;;3.35;;
75320;SDS011;63920;52.130;5.584;2023-02-03T12:20:39;8.70;;;2.90;;
75320;SDS011;63920;52.130;5.584;2023-02-03T12:23:20;10.65;;;3.15;;
75320;SDS011;63920;52.130;5.584;2023-02-03T12:34:22;16.50;;;4.18;;
75320;SDS011;63920;52.130;5.584;2023-02-03T12:36:58;13.15;;;4.50;;
75320;SDS011;63920;52.130;5.584;2023-02-03T12:39:50;19.30;;;5.57;;
75320;SDS011;63920;52.130;5.584;2023-02-03T12:42:18;11.95;;;4.78;;
75320;SDS011;63920;52.130;5.584;2023-02-03T12:44:51;42.78;;;12.02;;
75320;SDS011;63920;52.130;5.584;2023-02-03T12:47:27;27.15;;;8.63;;
75320;SDS011;63920;52.130;5.584;2023-02-03T12:49:59;21.45;;;6.70;;
75320;SDS011;63920;52.130;5.584;2023-02-03T12:52:35;18.80;;;5.32;;
75320;SDS011;63920;52.130;5.584;2023-02-03T12:58:04;12.57;;;4.65;;
75320;SDS011;63920;52.130;5.584;2023-02-03T13:12:02;22.30;;;4.85;;
75320;SDS011;63920;52.130;5.584;2023-02-03T13:14:35;31.17;;;10.88;;
75320;SDS011;63920;52.130;5.584;2023-02-03T13:17:17;22.45;;;5.50;;
75320;SDS011;63920;52.130;5.584;2023-02-03T13:19:49;27.50;;;4.82;;
75320;SDS011;63920;52.130;5.584;2023-02-03T13:22:22;19.05;;;4.93;;
75320;SDS011;63920;52.130;5.584;2023-02-03T13:24:51;23.98;;;4.95;;
75320;SDS011;63920;52.130;5.584;2023-02-03T13:30:43;23.58;;;6.43;;
75320;SDS011;63920;52.130;5.584;2023-02-03T13:36:08;30.15;;;7.93;;
75320;SDS011;63920;52.130;5.584;2023-02-03T13:41:48;24.02;;;4.65;;
75320;SDS011;63920;52.130;5.584;2023-02-03T13:44:18;15.70;;;3.88;;
75320;SDS011;63920;52.130;5.584;2023-02-03T13:46:49;30.58;;;4.97;;
75320;SDS011;63920;52.130;5.584;2023-02-03T13:49:32;22.75;;;4.80;;
75320;SDS011;63920;52.130;5.584;2023-02-03T13:52:00;24.33;;;5.15;;
75320;SDS011;63920;52.130;5.584;2023-02-03T13:56:57;26.50;;;5.70;;
75320;SDS011;63920;52.130;5.584;2023-02-03T13:59:28;19.88;;;5.20;;
75320;SDS011;63920;52.130;5.584;2023-02-03T14:07:25;27.67;;;5.57;;
75320;SDS011;63920;52.130;5.584;2023-02-03T14:10:12;26.33;;;4.95;;
75320;SDS011;63920;52.130;5.584;2023-02-03T14:15:20;20.08;;;4.93;;
75320;SDS011;63920;52.130;5.584;2023-02-03T14:22:53;30.95;;;4.97;;
75320;SDS011;63920;52.130;5.584;2023-02-03T14:25:54;25.95;;;4.95;;
75320;SDS011;63920;52.130;5.584;2023-02-03T14:28:25;32.47;;;4.93;;
75320;SDS011;63920;52.130;5.584;2023-02-03T14:31:16;29.65;;;5.13;;
75320;SDS011;63920;52.130;5.584;2023-02-03T14:36:25;30.67;;;5.15;;
75320;SDS011;63920;52.130;5.584;2023-02-03T14:38:59;28.27;;;5.30;;
75320;SDS011;63920;52.130;5.584;2023-02-03T14:47:17;26.42;;;5.20;;
75320;SDS011;63920;52.130;5.584;2023-02-03T14:52:58;28.52;;;5.97;;
75320;SDS011;63920;52.130;5.584;2023-02-03T14:58:44;29.77;;;6.80;;
75320;SDS011;63920;52.130;5.584;2023-02-03T15:04:18;38.95;;;9.85;;
75320;SDS011;63920;52.130;5.584;2023-02-03T15:06:46;39.70;;;11.13;;
75320;SDS011;63920;52.130;5.584;2023-02-03T15:12:22;48.42;;;13.18;;
75320;SDS011;63920;52.130;5.584;2023-02-03T15:14:50;51.35;;;13.82;;
75320;SDS011;63920;52.130;5.584;2023-02-03T15:17:20;35.53;;;8.73;;
75320;SDS011;63920;52.130;5.584;2023-02-03T15:19:51;35.35;;;7.05;;
75320;SDS011;63920;52.130;5.584;2023-02-03T15:22:24;34.55;;;6.65;;
75320;SDS011;63920;52.130;5.584;2023-02-03T15:24:54;30.58;;;7.22;;
75320;SDS011;63920;52.130;5.584;2023-02-03T15:27:25;31.70;;;9.77;;
75320;SDS011;63920;52.130;5.584;2023-02-03T15:29:53;35.95;;;7.63;;
75320;SDS011;63920;52.130;5.584;2023-02-03T15:32:28;28.05;;;5.47;;
75320;SDS011;63920;52.130;5.584;2023-02-03T15:35:00;27.85;;;6.05;;
75320;SDS011;63920;52.130;5.584;2023-02-03T15:37:31;29.58;;;5.63;;
75320;SDS011;63920;52.130;5.584;2023-02-03T15:40:07;30.75;;;6.63;;
75320;SDS011;63920;52.130;5.584;2023-02-03T15:48:06;31.67;;;6.43;;
75320;SDS011;63920;52.130;5.584;2023-02-03T15:50:56;29.83;;;6.30;;
75320;SDS011;63920;52.130;5.584;2023-02-03T15:53:29;32.70;;;7.07;;
75320;SDS011;63920;52.130;5.584;2023-02-03T15:56:00;34.40;;;7.57;;
75320;SDS011;63920;52.130;5.584;2023-02-03T15:58:35;31.02;;;6.50;;
75320;SDS011;63920;52.130;5.584;2023-02-03T16:01:10;34.65;;;7.47;;
75320;SDS011;63920;52.130;5.584;2023-02-03T16:03:42;28.17;;;5.43;;
75320;SDS011;63920;52.130;5.584;2023-02-03T16:08:51;37.40;;;7.13;;
75320;SDS011;63920;52.130;5.584;2023-02-03T16:13:58;35.17;;;6.28;;
75320;SDS011;63920;52.130;5.584;2023-02-03T16:19:20;29.45;;;5.85;;
75320;SDS011;63920;52.130;5.584;2023-02-03T16:29:49;34.00;;;8.15;;
75320;SDS011;63920;52.130;5.584;2023-02-03T16:32:38;34.45;;;7.18;;
75320;SDS011;63920;52.130;5.584;2023-02-03T16:35:23;33.53;;;7.43;;
75320;SDS011;63920;52.130;5.584;2023-02-03T16:38:13;44.53;;;9.93;;
75320;SDS011;63920;52.130;5.584;2023-02-03T16:40:59;53.13;;;15.38;;
75320;SDS011;63920;52.130;5.584;2023-02-03T16:43:45;65.82;;;17.85;;
75320;SDS011;63920;52.130;5.584;2023-02-03T16:46:31;55.30;;;13.30;;
75320;SDS011;63920;52.130;5.584;2023-02-03T16:49:16;39.13;;;10.25;;
75320;SDS011;63920;52.130;5.584;2023-02-03T16:52:01;28.80;;;7.65;;
75320;SDS011;63920;52.130;5.584;2023-02-03T16:54:27;34.72;;;6.82;;
75320;SDS011;63920;52.130;5.584;2023-02-03T16:56:53;28.52;;;6.38;;
75320;SDS011;63920;52.130;5.584;2023-02-03T16:59:23;39.67;;;9.82;;
75320;SDS011;63920;52.130;5.584;2023-02-03T17:01:48;28.77;;;6.88;;
75320;SDS011;63920;52.130;5.584;2023-02-03T17:04:15;28.35;;;6.45;;
75320;SDS011;63920;52.130;5.584;2023-02-03T17:06:41;29.15;;;6.22;;
75320;SDS011;63920;52.130;5.584;2023-02-03T17:09:08;27.25;;;5.85;;
75320;SDS011;63920;52.130;5.584;2023-02-03T17:11:34;36.47;;;6.63;;
75320;SDS011;63920;52.130;5.584;2023-02-03T17:13:59;34.20;;;6.88;;
75320;SDS011;63920;52.130;5.584;2023-02-03T17:16:25;37.47;;;7.80;;
75320;SDS011;63920;52.130;5.584;2023-02-03T17:18:52;35.20;;;7.90;;
75320;SDS011;63920;52.130;5.584;2023-02-03T17:21:22;31.38;;;6.35;;
75320;SDS011;63920;52.130;5.584;2023-02-03T17:23:49;34.53;;;6.78;;
75320;SDS011;63920;52.130;5.584;2023-02-03T17:26:15;35.75;;;6.70;;
75320;SDS011;63920;52.130;5.584;2023-02-03T17:28:41;25.27;;;5.85;;
75320;SDS011;63920;52.130;5.584;2023-02-03T17:31:09;30.08;;;6.13;;
75320;SDS011;63920;52.130;5.584;2023-02-03T17:33:38;28.42;;;5.97;;
75320;SDS011;63920;52.130;5.584;2023-02-03T17:36:05;33.35;;;6.20;;